Time;durP1;ratioP1;P1;durP2;ratioP2;P2;SDS_P1;SDS_P2;PMS_P1;PMS_P2;Temp;Humidity;BMP_temperature;BMP_pressure;BME280_temperature;BME280_humidity;BME280_pressure;Samples;Min_cycle;Max_cycle;Signal;HPM_P1;HPM_P2
2022/08/31 00:05:26;;;;;;;10.57;3.00;;;;;;;22.03;50.16;101284.16;5079852;28;20063;-69
2022/08/31 00:07:54;;;;;;;8.68;2.85;;;;;;;22.08;49.94;101290.25;5056005;28;20699;-67
2022/08/31 00:10:26;;;;;;;8.40;3.22;;;;;;;22.00;50.01;101287.72;5038292;28;20082;-68
2022/08/31 00:13:00;;;;;;;13.68;3.15;;;;;;;21.87;50.09;101287.09;5056107;28;20060;-65
2022/08/31 00:15:29;;;;;;;10.35;2.90;;;;;;;22.03;49.99;101281.34;5021009;28;20063;-65
2022/08/31 00:17:56;;;;;;;10.32;2.78;;;;;;;22.15;49.26;101276.34;5056274;28;20407;-68
2022/08/31 00:20:25;;;;;;;9.50;2.95;;;;;;;22.05;49.71;101278.97;5038168;28;20392;-66
2022/08/31 00:23:05;;;;;;;11.02;3.47;;;;;;;21.86;49.87;101279.88;5043431;28;20056;-67
2022/08/31 00:25:34;;;;;;;9.73;2.72;;;;;;;21.88;50.35;101274.69;5040449;28;20053;-68
2022/08/31 00:28:02;;;;;;;7.47;2.97;;;;;;;22.03;49.76;101275.72;5075396;28;20052;-67
2022/08/31 00:30:30;;;;;;;13.18;2.78;;;;;;;21.80;50.02;101280.56;5041155;28;20169;-66
2022/08/31 00:32:58;;;;;;;14.25;3.47;;;;;;;21.78;50.53;101280.13;5057592;28;20053;-69
2022/08/31 00:35:26;;;;;;;16.58;3.35;;;;;;;21.86;50.20;101271.44;5057382;28;20052;-68
2022/08/31 00:37:54;;;;;;;10.07;3.00;;;;;;;21.98;49.51;101273.25;5040320;28;20052;-69
2022/08/31 00:40:21;;;;;;;7.20;2.80;;;;;;;21.66;50.33;101269.88;5056542;28;20063;-68
2022/08/31 00:42:49;;;;;;;13.57;3.13;;;;;;;21.57;50.67;101277.75;5057392;28;20656;-66
2022/08/31 00:45:17;;;;;;;8.05;2.67;;;;;;;21.42;50.86;101275.88;5075033;28;20487;-68
2022/08/31 00:47:44;;;;;;;6.88;2.90;;;;;;;21.48;50.91;101273.59;5037755;28;20506;-67
2022/08/31 00:50:14;;;;;;;8.65;2.67;;;;;;;21.31;51.13;101277.66;5021023;28;20551;-67
2022/08/31 00:52:45;;;;;;;11.73;2.65;;;;;;;21.40;51.12;101280.22;5056513;28;20068;-67
2022/08/31 00:55:20;;;;;;;9.70;2.78;;;;;;;21.48;50.52;101274.38;5074449;28;20049;-67
2022/08/31 00:57:50;;;;;;;16.88;3.72;;;;;;;21.60;50.73;101274.19;5041208;28;20052;-67
2022/08/31 01:00:21;;;;;;;11.05;2.80;;;;;;;21.42;50.54;101287.09;5039675;28;20495;-67
2022/08/31 01:02:48;;;;;;;9.25;2.63;;;;;;;21.51;50.82;101281.22;5057009;28;20394;-65
2022/08/31 01:05:16;;;;;;;7.25;2.60;;;;;;;21.54;50.74;101284.09;5068119;28;20052;-66
2022/08/31 01:07:48;;;;;;;6.47;3.00;;;;;;;21.39;50.51;101279.44;5037246;28;20064;-68
2022/08/31 01:10:18;;;;;;;6.55;2.55;;;;;;;21.43;51.15;101279.50;5054973;28;20049;-67
2022/08/31 01:12:46;;;;;;;7.70;2.30;;;;;;;21.20;51.73;101280.25;5020756;28;20517;-67
2022/08/31 01:15:16;;;;;;;7.93;3.05;;;;;;;20.90;52.40;101275.63;5037317;28;20056;-69
2022/08/31 01:17:45;;;;;;;5.95;2.35;;;;;;;20.99;51.77;101281.88;5037325;28;20045;-67
2022/08/31 01:20:21;;;;;;;13.70;2.72;;;;;;;20.96;51.69;101283.38;5054195;28;20056;-64
2022/08/31 01:22:57;;;;;;;7.35;2.95;;;;;;;21.00;51.86;101287.09;5024150;28;20052;-65
2022/08/31 01:25:24;;;;;;;8.85;2.17;;;;;;;21.21;51.38;101289.50;5074622;28;20066;-66
2022/08/31 01:28:04;;;;;;;8.63;2.55;;;;;;;21.04;51.68;101289.97;5058448;28;20492;-66
2022/08/31 01:30:31;;;;;;;6.00;2.75;;;;;;;21.10;51.57;101291.25;5036585;28;20519;-68
2022/08/31 01:32:59;;;;;;;6.07;2.05;;;;;;;21.14;51.42;101286.56;5054807;28;20048;-67
2022/08/31 01:35:26;;;;;;;7.63;3.00;;;;;;;21.25;51.36;101295.97;5054241;28;20048;-68
2022/08/31 01:37:55;;;;;;;7.93;2.45;;;;;;;21.21;51.62;101289.50;5057376;28;20052;-67
2022/08/31 01:40:48;;;;;;;13.65;2.70;;;;;;;21.13;51.68;101280.13;5019911;28;20040;-67
2022/08/31 01:43:16;;;;;;;10.50;2.85;;;;;;;20.97;51.54;101289.78;5048417;28;20416;-65
2022/08/31 01:45:43;;;;;;;8.80;3.17;;;;;;;20.92;51.88;101290.88;5070048;28;20059;-66
2022/08/31 01:48:11;;;;;;;10.18;2.83;;;;;;;20.84;52.07;101291.91;5020699;28;20056;-65
2022/08/31 01:50:39;;;;;;;6.65;2.50;;;;;;;20.85;52.32;101293.53;5053901;28;20048;-66
2022/08/31 01:53:06;;;;;;;11.18;2.90;;;;;;;20.75;52.52;101301.69;5036273;28;20063;-67
2022/08/31 01:55:34;;;;;;;8.02;2.90;;;;;;;20.69;52.63;101292.00;5035717;28;20049;-66
2022/08/31 01:58:01;;;;;;;12.82;2.90;;;;;;;20.75;52.69;101287.72;5054559;28;20053;-65
2022/08/31 02:00:38;;;;;;;8.50;2.65;;;;;;;20.91;52.25;101285.66;5053731;28;20048;-65
2022/08/31 02:03:06;;;;;;;7.25;2.60;;;;;;;20.90;52.40;101284.81;5036254;28;20049;-65
2022/08/31 02:05:35;;;;;;;8.38;2.75;;;;;;;20.71;52.85;101286.84;5044643;28;20033;-66
2022/08/31 02:08:05;;;;;;;6.53;2.70;;;;;;;20.66;52.66;101287.94;5036121;28;20064;-67
2022/08/31 02:10:33;;;;;;;8.33;2.80;;;;;;;20.54;53.30;101282.47;5035695;28;20052;-66
2022/08/31 02:13:00;;;;;;;11.35;3.25;;;;;;;20.51;53.21;101290.78;5036464;28;20306;-67
2022/08/31 02:15:31;;;;;;;;;;;;;;;20.66;53.06;101284.34;5036855;28;20064;-67
2022/08/31 02:17:58;;;;;;;11.20;2.45;;;;;;;20.81;53.36;101287.06;5054202;28;20268;-66
2022/08/31 02:20:26;;;;;;;7.10;2.58;;;;;;;20.91;52.47;101292.06;5035620;28;20056;-66
2022/08/31 02:22:55;;;;;;;8.93;2.90;;;;;;;20.52;53.29;101295.22;5072725;28;20361;-66
2022/08/31 02:25:22;;;;;;;10.02;2.97;;;;;;;20.60;53.33;101286.63;5066829;28;20068;-68
2022/08/31 02:27:50;;;;;;;10.75;2.92;;;;;;;20.68;52.72;101288.38;5020427;28;20056;-68
2022/08/31 02:30:18;;;;;;;12.70;3.20;;;;;;;20.44;53.47;101296.22;5035664;28;20068;-67
2022/08/31 02:32:45;;;;;;;7.90;2.80;;;;;;;20.51;54.70;101301.97;5036272;28;20067;-68
2022/08/31 02:35:13;;;;;;;12.75;3.60;;;;;;;20.63;54.67;101297.06;5052644;28;20045;-68
2022/08/31 02:37:40;;;;;;;10.32;3.08;;;;;;;20.71;55.19;101307.22;5018583;28;20592;-67
2022/08/31 02:40:09;;;;;;;8.77;3.38;;;;;;;20.77;55.04;101304.94;5036147;28;20061;-67
2022/08/31 02:42:41;;;;;;;9.88;2.90;;;;;;;20.98;55.27;101299.78;5036103;28;20060;-66
2022/08/31 02:45:21;;;;;;;12.18;3.38;;;;;;;20.91;55.48;101308.88;5035918;28;20041;-67
2022/08/31 02:47:48;;;;;;;7.53;3.20;;;;;;;20.84;55.51;101307.91;5019511;28;20064;-65
2022/08/31 02:50:26;;;;;;;10.40;3.25;;;;;;;20.09;57.63;101305.41;5037869;28;20049;-68
2022/08/31 02:52:55;;;;;;;6.93;2.97;;;;;;;20.11;58.11;101308.66;5055598;28;20060;-68
2022/08/31 02:55:24;;;;;;;10.88;3.08;;;;;;;20.26;57.64;101317.41;5073257;28;20052;-68
2022/08/31 02:57:52;;;;;;;7.00;2.88;;;;;;;19.94;58.10;101311.84;5022656;28;20052;-67
2022/08/31 03:00:22;;;;;;;10.55;3.30;;;;;;;19.96;58.30;101315.06;5055148;28;20056;-67
2022/08/31 03:02:49;;;;;;;8.45;3.22;;;;;;;20.11;58.48;101313.44;5039971;28;20586;-68
2022/08/31 03:05:19;;;;;;;8.82;3.40;;;;;;;20.32;57.59;101307.53;5085049;28;20051;-65
2022/08/31 03:07:48;;;;;;;9.35;3.00;;;;;;;20.06;57.09;101300.53;5057347;28;20064;-66
2022/08/31 03:10:19;;;;;;;9.73;2.95;;;;;;;19.97;58.13;101310.28;5057293;28;20059;-66
2022/08/31 03:12:47;;;;;;;8.80;3.28;;;;;;;20.20;57.00;101311.28;5058767;28;20064;-67
2022/08/31 03:15:16;;;;;;;7.20;2.72;;;;;;;19.48;59.58;101306.22;5042587;28;20044;-67
2022/08/31 03:17:45;;;;;;;11.77;3.42;;;;;;;19.77;59.08;101308.59;5023552;28;20059;-67
2022/08/31 03:20:14;;;;;;;9.15;3.13;;;;;;;19.88;58.84;101315.25;5055849;28;20048;-67
2022/08/31 03:22:41;;;;;;;7.82;3.42;;;;;;;19.86;59.06;101318.41;5024489;28;20061;-68
2022/08/31 03:25:13;;;;;;;11.50;3.10;;;;;;;20.14;58.27;101312.69;5058502;28;20050;-66
2022/08/31 03:27:40;;;;;;;11.90;3.20;;;;;;;20.31;57.69;101314.31;5059302;28;20053;-69
2022/08/31 03:30:10;;;;;;;6.38;2.80;;;;;;;19.59;59.64;101324.06;5042718;28;20048;-65
2022/08/31 03:32:40;;;;;;;10.70;3.25;;;;;;;19.48;59.52;101329.38;5058605;28;20408;-66
2022/08/31 03:35:07;;;;;;;8.30;3.22;;;;;;;19.17;60.74;101334.06;5058860;28;20045;-67
2022/08/31 03:37:37;;;;;;;12.00;3.50;;;;;;;18.85;61.87;101333.94;5071921;28;20052;-68
2022/08/31 03:40:05;;;;;;;8.32;3.05;;;;;;;19.22;61.52;101331.00;5021840;28;20855;-68
2022/08/31 03:42:33;;;;;;;10.52;3.58;;;;;;;19.35;60.75;101332.63;5037961;28;20056;-66
2022/08/31 03:45:02;;;;;;;8.27;3.40;;;;;;;18.93;61.67;101329.41;5022756;28;20495;-66
2022/08/31 03:47:31;;;;;;;9.85;3.30;;;;;;;19.01;61.50;101334.84;5038352;28;20056;-66
2022/08/31 03:49:59;;;;;;;9.70;3.60;;;;;;;18.60;62.73;101331.59;5056777;28;20101;-66
2022/08/31 03:52:36;;;;;;;5.78;2.78;;;;;;;19.02;61.82;101339.22;5037977;28;20057;-68
2022/08/31 03:55:11;;;;;;;14.48;3.80;;;;;;;18.94;61.96;101343.00;5038863;28;20051;-67
2022/08/31 03:57:40;;;;;;;8.63;3.27;;;;;;;19.36;60.57;101340.63;5005754;28;20053;-68
2022/08/31 04:00:08;;;;;;;10.85;2.92;;;;;;;19.21;61.14;101334.97;5038480;28;20056;-67
2022/08/31 04:02:42;;;;;;;6.32;3.20;;;;;;;19.26;60.90;101343.09;5075942;28;20048;-65
2022/08/31 04:05:30;;;;;;;7.15;2.97;;;;;;;19.08;61.24;101335.03;5056503;28;20040;-67
2022/08/31 04:08:16;;;;;;;12.88;3.72;;;;;;;19.29;60.33;101340.41;5056208;28;20061;-65
2022/08/31 04:10:48;;;;;;;13.90;3.67;;;;;;;19.39;60.03;101339.09;5056141;28;20052;-64
2022/08/31 04:13:36;;;;;;;8.95;3.33;;;;;;;19.55;59.48;101332.38;5041403;28;20524;-66
2022/08/31 04:16:22;;;;;;;11.77;3.65;;;;;;;19.42;59.70;101344.78;5040597;28;20045;-66
2022/08/31 04:18:53;;;;;;;13.23;3.25;;;;;;;19.64;58.85;101335.81;5038815;28;20060;-66
2022/08/31 04:21:24;;;;;;;8.95;3.10;;;;;;;19.50;59.31;101334.59;5020399;28;20041;-68
2022/08/31 04:23:51;;;;;;;;;;;;;;;19.08;60.57;101342.59;5050611;28;20412;-66
2022/08/31 04:26:22;;;;;;;8.05;3.30;;;;;;;18.96;60.35;101335.09;5075569;28;19920;-66
2022/08/31 04:28:50;;;;;;;11.40;3.70;;;;;;;19.04;60.43;101344.47;5058344;28;20052;-67
2022/08/31 04:31:19;;;;;;;10.90;3.38;;;;;;;19.36;59.71;101349.00;5040089;28;20084;-66
2022/08/31 04:33:47;;;;;;;11.17;3.47;;;;;;;19.52;58.96;101346.25;5057809;28;20432;-66
2022/08/31 04:36:20;;;;;;;7.15;3.35;;;;;;;19.54;58.51;101336.34;5057332;28;20059;-66
2022/08/31 04:38:52;;;;;;;6.72;3.40;;;;;;;19.79;57.84;101335.00;5041851;28;20048;-68
2022/08/31 04:41:21;;;;;;;12.93;3.63;;;;;;;19.84;57.93;101336.72;5056431;28;20444;-69
2022/08/31 04:43:53;;;;;;;10.90;3.72;;;;;;;20.03;57.00;101339.59;5075513;28;20052;-66
2022/08/31 04:46:21;;;;;;;6.93;3.25;;;;;;;19.46;58.39;101345.69;5039960;28;20053;-69
2022/08/31 04:48:48;;;;;;;9.70;4.22;;;;;;;18.99;59.92;101345.53;5057623;28;20053;-67
2022/08/31 04:51:36;;;;;;;10.07;3.40;;;;;;;18.86;60.20;101343.94;5020249;28;20408;-67
2022/08/31 04:54:07;;;;;;;14.90;3.75;;;;;;;18.81;60.62;101344.19;5055491;28;20068;-67
2022/08/31 04:56:38;;;;;;;10.93;3.10;;;;;;;18.92;59.90;101339.75;5048621;28;20051;-67
2022/08/31 04:59:08;;;;;;;8.27;3.22;;;;;;;19.11;59.27;101352.25;5057515;28;20049;-68
2022/08/31 05:01:44;;;;;;;10.80;3.55;;;;;;;18.89;60.38;101350.81;5056924;28;20052;-66
2022/08/31 05:04:30;;;;;;;9.65;4.00;;;;;;;18.86;61.44;101346.72;5081752;28;20050;-66
2022/08/31 05:06:58;;;;;;;10.27;3.28;;;;;;;19.66;59.95;101339.06;5047056;28;20040;-67
2022/08/31 05:09:26;;;;;;;10.15;3.60;;;;;;;19.83;58.21;101340.69;5037258;28;20435;-67
2022/08/31 05:11:55;;;;;;;6.70;3.33;;;;;;;19.24;58.86;101349.03;5036881;28;20049;-66
2022/08/31 05:14:24;;;;;;;15.32;3.60;;;;;;;19.20;59.86;101352.88;5005472;28;20571;-66
2022/08/31 05:17:00;;;;;;;14.63;3.33;;;;;;;18.91;60.00;101354.88;5036674;28;20568;-68
2022/08/31 05:19:30;;;;;;;14.43;3.90;;;;;;;18.89;60.25;101353.59;5036727;28;20061;-66
2022/08/31 05:21:58;;;;;;;11.25;3.78;;;;;;;18.78;60.40;101344.91;5036749;28;20048;-66
2022/08/31 05:24:26;;;;;;;10.18;3.60;;;;;;;18.57;61.19;101357.38;5054032;28;20048;-67
2022/08/31 05:26:55;;;;;;;9.63;3.35;;;;;;;18.74;60.86;101357.13;5056625;28;20128;-66
2022/08/31 05:29:24;;;;;;;11.40;3.13;;;;;;;19.16;60.31;101354.78;5056481;28;20063;-66
2022/08/31 05:32:06;;;;;;;9.57;3.35;;;;;;;19.41;59.65;101347.94;5039576;28;20068;-66
2022/08/31 05:34:33;;;;;;;12.25;3.80;;;;;;;18.93;61.02;101351.72;5057260;28;20520;-66
2022/08/31 05:37:01;;;;;;;17.65;4.13;;;;;;;18.85;61.71;101349.88;5074072;28;20040;-68
2022/08/31 05:39:32;;;;;;;12.50;4.50;;;;;;;18.80;61.14;101358.50;5024712;28;20530;-67
2022/08/31 05:41:59;;;;;;;13.80;4.07;;;;;;;18.56;62.31;101350.19;5039240;28;20048;-66
2022/08/31 05:44:27;;;;;;;9.50;3.72;;;;;;;18.79;61.55;101363.25;5056752;28;20052;-68
2022/08/31 05:46:56;;;;;;;9.20;3.72;;;;;;;19.08;61.72;101353.75;5056407;28;20049;-68
2022/08/31 05:49:30;;;;;;;12.07;3.85;;;;;;;19.21;60.92;101351.72;5073288;28;20059;-68
2022/08/31 05:52:04;;;;;;;9.00;3.60;;;;;;;18.94;62.03;101350.56;5073860;28;20036;-69
2022/08/31 05:54:34;;;;;;;10.82;4.30;;;;;;;18.77;62.30;101356.44;5074728;28;20056;-67
2022/08/31 05:57:03;;;;;;;10.50;3.90;;;;;;;18.33;63.92;101349.03;5056187;28;20052;-68
2022/08/31 05:59:30;;;;;;;11.73;3.97;;;;;;;18.35;63.87;101357.84;5056461;28;20052;-68
2022/08/31 06:01:59;;;;;;;8.48;4.40;;;;;;;18.46;63.77;101356.25;5039359;28;20146;-68
2022/08/31 06:04:31;;;;;;;11.38;4.00;;;;;;;18.34;64.20;101357.03;5081171;28;20645;-68
2022/08/31 06:06:58;;;;;;;13.95;4.05;;;;;;;18.56;63.87;101364.97;5060157;28;20036;-68
2022/08/31 06:09:31;;;;;;;13.50;4.28;;;;;;;19.18;62.12;101363.63;5055790;28;20048;-69
2022/08/31 06:12:02;;;;;;;12.25;3.95;;;;;;;19.66;60.56;101355.84;5056010;28;20045;-67
2022/08/31 06:14:30;;;;;;;14.80;3.95;;;;;;;18.89;61.37;101357.22;5056774;28;20056;-69
2022/08/31 06:16:58;;;;;;;15.30;4.25;;;;;;;18.30;63.75;101364.50;5055282;28;20052;-68
2022/08/31 06:19:26;;;;;;;8.48;3.80;;;;;;;18.60;63.25;101363.06;5074404;28;20403;-68
2022/08/31 06:21:54;;;;;;;9.10;3.95;;;;;;;18.29;64.63;101359.28;5055499;28;20048;-68
2022/08/31 06:24:24;;;;;;;15.75;4.03;;;;;;;18.23;65.04;101360.66;5040007;28;20059;-68
2022/08/31 06:26:55;;;;;;;11.52;4.18;;;;;;;18.17;64.93;101359.25;5041690;28;20045;-69
2022/08/31 06:29:32;;;;;;;10.82;4.10;;;;;;;18.75;64.07;101365.16;5036410;28;20048;-69
2022/08/31 06:32:04;;;;;;;14.55;4.28;;;;;;;18.59;64.00;101367.03;5036030;28;20048;-68
2022/08/31 06:34:33;;;;;;;14.45;4.18;;;;;;;18.50;64.19;101359.97;5036562;28;20607;-68
2022/08/31 06:37:08;;;;;;;11.00;3.72;;;;;;;19.07;62.69;101361.31;5053395;28;20049;-70
2022/08/31 06:40:13;;;;;;;15.05;3.97;;;;;;;18.94;63.20;101359.75;5024949;28;20049;-70
2022/08/31 06:42:54;;;;;;;9.07;4.00;;;;;;;18.50;64.20;101368.31;5040337;28;20068;-68
2022/08/31 06:45:31;;;;;;;11.07;3.40;;;;;;;19.13;62.47;101366.66;5039972;28;20063;-68
2022/08/31 06:48:34;;;;;;;11.45;4.05;;;;;;;19.24;61.52;101368.59;5057788;28;20053;-68
2022/08/31 06:51:03;;;;;;;11.50;4.35;;;;;;;19.35;62.31;101372.53;5057571;28;20049;-68
2022/08/31 06:53:30;;;;;;;12.30;4.38;;;;;;;18.66;63.58;101375.63;5023208;28;20053;-69
2022/08/31 06:56:09;;;;;;;18.60;4.72;;;;;;;18.81;63.57;101379.69;5026888;28;20057;-69
2022/08/31 06:59:06;;;;;;;15.60;4.43;;;;;;;18.64;63.87;101375.16;5044473;28;20048;-69
2022/08/31 07:01:54;;;;;;;8.88;4.50;;;;;;;19.25;61.94;101380.59;5046875;28;20072;-69
2022/08/31 07:04:34;;;;;;;17.67;4.32;;;;;;;19.43;60.64;101379.94;5052538;28;20056;-69
2022/08/31 07:07:02;;;;;;;14.52;4.63;;;;;;;18.80;62.28;101380.84;5047698;28;20045;-69
2022/08/31 07:09:30;;;;;;;16.30;4.28;;;;;;;19.21;62.70;101376.88;5039386;28;20060;-69
2022/08/31 07:11:57;;;;;;;13.40;4.32;;;;;;;19.01;61.72;101375.88;5053786;28;20052;-68
2022/08/31 07:14:26;;;;;;;14.60;4.53;;;;;;;19.25;61.92;101370.22;5059977;28;20381;-68
2022/08/31 07:16:57;;;;;;;11.25;4.50;;;;;;;19.31;61.00;101376.38;5042884;28;20052;-69
2022/08/31 07:19:25;;;;;;;14.23;4.82;;;;;;;19.29;60.84;101368.34;5059650;28;20056;-68
2022/08/31 07:21:59;;;;;;;15.75;4.80;;;;;;;18.74;62.61;101377.47;5058803;28;20055;-69
2022/08/31 07:24:32;;;;;;;12.77;4.55;;;;;;;18.59;62.93;101374.59;5041951;28;20045;-68
2022/08/31 07:27:03;;;;;;;13.50;5.10;;;;;;;18.54;62.95;101367.28;5038520;28;20084;-69
2022/08/31 07:29:59;;;;;;;9.48;4.57;;;;;;;18.89;62.33;101373.97;5039327;28;20056;-68
2022/08/31 07:32:31;;;;;;;10.98;4.72;;;;;;;19.00;62.03;101374.28;5038524;28;20064;-68
2022/08/31 07:34:59;;;;;;;15.30;4.80;;;;;;;19.45;60.38;101374.00;5039333;28;20512;-69
2022/08/31 07:43:12;;;;;;;16.20;5.25;;;;;;;19.48;59.98;101373.28;5058866;28;20064;-68
2022/08/31 07:45:40;;;;;;;15.57;5.18;;;;;;;19.51;60.75;101376.16;5041832;28;20063;-69
2022/08/31 07:48:09;;;;;;;11.82;5.20;;;;;;;19.71;58.88;101366.75;5058093;28;20044;-68
2022/08/31 07:50:47;;;;;;;12.55;4.90;;;;;;;19.75;58.95;101376.00;5057942;28;20083;-68
2022/08/31 07:53:28;;;;;;;12.70;5.93;;;;;;;19.98;58.52;101373.41;5043374;28;20056;-69
2022/08/31 07:56:17;;;;;;;14.18;5.38;;;;;;;20.24;57.38;101375.72;5061601;28;20052;-69
2022/08/31 07:58:48;;;;;;;13.82;4.80;;;;;;;20.08;57.53;101373.69;5025903;28;20048;-68
2022/08/31 08:01:18;;;;;;;12.23;5.03;;;;;;;19.95;58.00;101377.75;5058207;28;20052;-68
2022/08/31 08:03:46;;;;;;;17.55;5.22;;;;;;;20.30;57.45;101375.06;5042677;28;20052;-70
2022/08/31 08:06:32;;;;;;;10.23;4.90;;;;;;;20.34;56.25;101373.16;5055438;28;20473;-70
2022/08/31 08:09:14;;;;;;;17.50;5.65;;;;;;;20.06;57.20;101366.84;5054040;28;20060;-70
2022/08/31 08:12:12;;;;;;;12.98;5.32;;;;;;;20.07;57.47;101363.69;5056082;28;20086;-68
2022/08/31 08:14:56;;;;;;;13.15;5.35;;;;;;;20.33;57.33;101359.53;5056445;28;20037;-68
2022/08/31 08:17:40;;;;;;;18.10;5.80;;;;;;;20.07;57.42;101358.09;5023757;28;20045;-70
2022/08/31 08:20:10;;;;;;;14.90;5.47;;;;;;;20.10;57.43;101353.78;5055758;28;20056;-69
2022/08/31 08:22:42;;;;;;;11.18;5.75;;;;;;;19.95;57.94;101351.78;5056631;28;20049;-69
2022/08/31 08:25:33;;;;;;;23.67;5.90;;;;;;;20.05;57.90;101342.81;5061015;28;20059;-69
2022/08/31 08:28:05;;;;;;;18.88;6.07;;;;;;;20.26;57.04;101345.38;5057540;28;20063;-68
2022/08/31 08:30:53;;;;;;;17.58;5.80;;;;;;;20.70;55.90;101346.78;5057578;28;20048;-70
2022/08/31 08:33:24;;;;;;;16.02;5.25;;;;;;;20.39;56.39;101338.50;5057988;28;20413;-68
2022/08/31 08:35:55;;;;;;;16.23;5.63;;;;;;;20.15;57.20;101345.09;5057755;28;20057;-69
2022/08/31 08:38:24;;;;;;;15.02;5.18;;;;;;;20.20;57.77;101352.41;5057660;28;20048;-69
2022/08/31 08:40:52;;;;;;;13.52;5.00;;;;;;;20.68;56.54;101340.75;5057342;28;20504;-69
2022/08/31 08:43:22;;;;;;;12.07;4.93;;;;;;;20.82;55.08;101343.88;5041576;28;20056;-68
2022/08/31 08:45:55;;;;;;;15.80;4.55;;;;;;;20.89;55.34;101338.41;5058419;28;20068;-68
2022/08/31 08:48:31;;;;;;;14.45;5.68;;;;;;;20.68;55.83;101349.97;5009063;28;20515;-68
2022/08/31 08:51:00;;;;;;;13.10;5.97;;;;;;;20.60;56.68;101338.97;5056798;28;20435;-68
2022/08/31 08:53:41;;;;;;;13.57;5.45;;;;;;;20.75;56.09;101343.69;5042342;28;20052;-69
2022/08/31 08:56:21;;;;;;;18.33;5.07;;;;;;;21.00;55.78;101345.91;5042249;28;20056;-68
2022/08/31 08:59:01;;;;;;;16.77;5.47;;;;;;;20.59;56.50;101340.16;5042207;28;20546;-68
2022/08/31 09:01:36;;;;;;;15.88;6.15;;;;;;;21.01;55.63;101346.69;5056542;28;20055;-67
2022/08/31 09:04:19;;;;;;;20.10;6.68;;;;;;;20.43;56.33;101342.19;5059417;28;20523;-68
2022/08/31 09:07:29;;;;;;;12.05;6.22;;;;;;;20.45;56.92;101340.63;5047421;28;20041;-68
2022/08/31 09:10:18;;;;;;;11.82;5.20;;;;;;;20.85;56.87;101331.94;5054430;28;20049;-68
2022/08/31 09:12:56;;;;;;;15.02;5.40;;;;;;;20.81;56.27;101333.84;5053692;28;20079;-68
2022/08/31 09:15:30;;;;;;;14.88;5.82;;;;;;;20.84;56.51;101336.72;5037765;28;20052;-69
2022/08/31 09:18:25;;;;;;;14.43;6.00;;;;;;;21.15;55.26;101327.38;5037226;28;20049;-69
2022/08/31 09:21:06;;;;;;;;;;;;;;;21.03;55.99;101333.97;5007553;28;20057;-67
2022/08/31 09:23:36;;;;;;;18.13;6.18;;;;;;;20.81;55.95;101326.28;5026941;28;19928;-68
2022/08/31 09:26:04;;;;;;;9.77;5.80;;;;;;;20.83;56.69;101325.91;5044311;28;20045;-68
2022/08/31 09:28:53;;;;;;;12.90;5.40;;;;;;;20.90;56.38;101318.44;5074883;28;20041;-68
2022/08/31 09:31:36;;;;;;;11.50;5.78;;;;;;;21.29;55.02;101330.47;5074543;28;20047;-69
2022/08/31 09:34:28;;;;;;;13.80;6.30;;;;;;;21.23;55.15;101315.16;5074922;28;20045;-68
2022/08/31 09:37:18;;;;;;;11.55;6.10;;;;;;;21.27;55.01;101308.41;5068188;28;20060;-72
2022/08/31 09:39:48;;;;;;;15.52;6.07;;;;;;;21.59;54.63;101303.41;5074842;28;20431;-69
2022/08/31 09:42:18;;;;;;;14.18;5.35;;;;;;;21.58;54.13;101310.22;5074664;28;20075;-69
2022/08/31 09:44:48;;;;;;;16.42;6.30;;;;;;;21.24;55.37;101308.34;5074920;28;20048;-70
2022/08/31 09:47:47;;;;;;;12.23;5.70;;;;;;;21.28;55.37;101312.03;5056705;28;20041;-69
2022/08/31 09:50:31;;;;;;;12.48;5.63;;;;;;;21.65;54.38;101312.31;5074628;28;20063;-69
2022/08/31 09:56:14;;;;;;;9.75;5.22;;;;;;;22.01;53.42;101295.75;5055779;28;20507;-68
2022/08/31 09:58:44;;;;;;;11.32;5.90;;;;;;;21.94;53.31;101303.25;5074431;28;20364;-69
2022/08/31 10:01:16;;;;;;;14.25;5.60;;;;;;;22.12;52.92;101296.72;5074162;28;20519;-69
2022/08/31 10:03:46;;;;;;;11.38;5.85;;;;;;;22.19;52.74;101293.22;5057154;28;20546;-68
2022/08/31 10:06:36;;;;;;;12.32;4.78;;;;;;;22.05;52.78;101285.41;5058901;28;20787;-68
2022/08/31 10:09:11;;;;;;;12.57;4.95;;;;;;;22.29;52.01;101284.97;5036835;28;20053;-68
2022/08/31 10:11:39;;;;;;;11.27;4.78;;;;;;;22.31;52.29;101276.16;5053758;28;20443;-69
2022/08/31 10:14:23;;;;;;;14.15;5.25;;;;;;;22.34;51.79;101281.00;5036826;28;20395;-68
2022/08/31 10:17:03;;;;;;;12.95;4.82;;;;;;;22.62;51.21;101272.19;5026629;28;20091;-68
2022/08/31 10:19:54;;;;;;;13.40;4.43;;;;;;;22.62;51.60;101278.63;5043968;28;20104;-69
2022/08/31 10:22:29;;;;;;;11.98;5.03;;;;;;;22.71;51.03;101272.72;5059258;28;20072;-69
2022/08/31 10:25:05;;;;;;;8.90;5.20;;;;;;;22.71;51.01;101275.53;5060717;28;20053;-68
2022/08/31 10:27:39;;;;;;;21.60;7.40;;;;;;;22.83;50.63;101275.28;5060569;28;20057;-69
2022/08/31 10:30:31;;;;;;;14.45;8.27;;;;;;;22.72;50.62;101280.75;5027080;28;20051;-69
2022/08/31 10:33:09;;;;;;;27.30;13.77;;;;;;;22.79;50.77;101263.19;5060727;28;20080;-69
2022/08/31 10:35:55;;;;;;;13.48;5.40;;;;;;;22.99;50.30;101267.44;5060250;28;20049;-68
2022/08/31 10:38:29;;;;;;;9.10;4.00;;;;;;;23.08;49.82;101268.75;5009992;28;20056;-68
2022/08/31 10:41:10;;;;;;;15.57;9.50;;;;;;;23.10;49.92;101271.19;5060570;28;20060;-67
2022/08/31 10:43:58;;;;;;;9.60;5.70;;;;;;;23.07;49.66;101267.16;5042616;28;20126;-68
2022/08/31 10:46:27;;;;;;;14.07;5.40;;;;;;;23.32;49.33;101264.63;5042736;28;20061;-68
2022/08/31 10:48:56;;;;;;;10.88;4.82;;;;;;;23.02;50.13;101261.88;5043360;28;20049;-68
2022/08/31 10:51:29;;;;;;;11.50;4.85;;;;;;;22.97;50.32;101272.63;5042422;28;20064;-67
2022/08/31 10:54:06;;;;;;;11.60;5.00;;;;;;;22.97;50.22;101259.41;5060490;28;20060;-68
2022/08/31 10:56:49;;;;;;;10.55;4.90;;;;;;;23.00;49.88;101255.00;5060353;28;20075;-68
2022/08/31 10:59:58;;;;;;;9.48;4.80;;;;;;;22.98;50.03;101254.59;5061003;28;20057;-69
2022/08/31 11:02:49;;;;;;;11.23;5.57;;;;;;;23.16;49.82;101264.84;5016468;28;20061;-69
2022/08/31 11:05:28;;;;;;;10.65;4.88;;;;;;;23.24;49.54;101266.53;5012455;28;20092;-68
2022/08/31 11:07:56;;;;;;;11.80;5.00;;;;;;;23.60;48.94;101253.66;5027163;28;20064;-68
2022/08/31 11:10:42;;;;;;;14.80;4.47;;;;;;;23.81;47.80;101247.38;5042529;28;20053;-70
2022/08/31 11:13:24;;;;;;;12.50;4.88;;;;;;;23.74;48.16;101241.72;5025809;28;20056;-69
2022/08/31 11:16:16;;;;;;;14.20;4.85;;;;;;;23.61;48.75;101246.00;5060225;28;20052;-68
2022/08/31 11:19:16;;;;;;;13.18;4.40;;;;;;;23.59;48.48;101248.44;5060589;28;20057;-69
2022/08/31 11:21:58;;;;;;;11.65;5.18;;;;;;;23.59;48.34;101252.03;5035178;28;20056;-69
2022/08/31 11:25:04;;;;;;;13.98;5.15;;;;;;;23.77;47.85;101244.56;5077802;28;20553;-69
2022/08/31 11:27:39;;;;;;;17.98;5.45;;;;;;;23.68;48.29;101248.88;5076979;28;20052;-68
2022/08/31 11:30:27;;;;;;;10.50;5.20;;;;;;;23.72;48.12;101238.47;5059337;28;20044;-68
2022/08/31 11:33:06;;;;;;;20.15;6.40;;;;;;;24.00;47.49;101247.97;5077190;28;20083;-70
2022/08/31 11:36:05;;;;;;;12.57;5.82;;;;;;;24.23;47.07;101239.28;5076879;28;20055;-69
2022/08/31 11:38:48;;;;;;;13.25;5.65;;;;;;;24.01;47.35;101232.69;5077032;28;20077;-68
2022/08/31 11:41:35;;;;;;;13.75;6.00;;;;;;;24.24;47.35;101221.19;5076617;28;20048;-69
2022/08/31 11:44:03;;;;;;;19.65;5.53;;;;;;;24.27;46.29;101224.00;5077080;28;20063;-67
2022/08/31 11:46:37;;;;;;;13.75;4.78;;;;;;;24.30;46.37;101222.44;5076704;28;20045;-67
2022/08/31 11:49:06;;;;;;;10.95;5.25;;;;;;;24.32;46.63;101222.84;5058047;28;20057;-68
2022/08/31 11:51:54;;;;;;;10.45;4.63;;;;;;;24.55;46.24;101214.88;5076178;28;20052;-68
2022/08/31 11:54:35;;;;;;;11.88;5.55;;;;;;;24.58;45.86;101216.13;5058136;28;20063;-68
2022/08/31 11:57:04;;;;;;;11.52;4.75;;;;;;;24.44;46.45;101219.69;5057882;28;20554;-70
2022/08/31 11:59:34;;;;;;;14.80;6.78;;;;;;;24.41;46.39;101214.81;5058730;28;20047;-69
2022/08/31 12:02:20;;;;;;;10.02;4.90;;;;;;;24.56;46.11;101208.06;5041338;28;20067;-69
2022/08/31 12:04:50;;;;;;;9.57;4.60;;;;;;;24.86;45.30;101208.59;5067777;28;20055;-68